createdAt,value
2023-05-13T00:02:08.419Z,61.50
2023-05-13T00:05:10.299Z,60.96
2023-05-13T00:08:12.318Z,60.75
2023-05-13T00:11:14.214Z,60.91
2023-05-13T00:14:16.101Z,60.49
2023-05-13T00:17:17.950Z,60.89
2023-05-13T00:20:21.195Z,60.57
2023-05-13T00:23:23.220Z,59.97
2023-05-13T00:26:25.182Z,59.75
2023-05-13T00:29:27.329Z,59.66
2023-05-13T00:32:29.684Z,59.31
2023-05-13T00:35:31.561Z,59.32
2023-05-13T00:38:33.511Z,59.89
2023-05-13T00:41:35.410Z,61.09
2023-05-13T00:44:37.232Z,61.53
2023-05-13T00:47:40.414Z,61.73
2023-05-13T00:50:44.848Z,62.29
2023-05-13T00:53:47.375Z,62.01
2023-05-13T00:56:49.259Z,62.29
2023-05-13T00:59:51.531Z,62.90
2023-05-13T01:03:29.806Z,62.83
2023-05-13T01:06:45.092Z,63.29
2023-05-13T01:09:55.239Z,63.23
2023-05-13T01:13:01.567Z,63.08
2023-05-13T01:16:12.132Z,63.31
2023-05-13T01:19:33.323Z,64.50
2023-05-13T01:22:35.212Z,64.15
2023-05-13T01:25:38.882Z,64.24
2023-05-13T01:28:40.782Z,64.82
2023-05-13T01:31:44.097Z,64.82
2023-05-13T01:34:47.102Z,64.03
2023-05-13T01:37:50.703Z,63.78
2023-05-13T01:40:53.270Z,64.97
2023-05-13T01:43:55.426Z,65.24
2023-05-13T01:46:57.475Z,66.22
2023-05-13T01:49:59.806Z,66.30
2023-05-13T01:53:02.566Z,66.54
2023-05-13T01:56:05.494Z,65.59
2023-05-13T01:59:11.274Z,65.83
2023-05-13T02:02:13.308Z,65.85
2023-05-13T02:05:15.505Z,65.38
2023-05-13T02:08:17.553Z,65.47
2023-05-13T02:11:19.456Z,65.45
2023-05-13T02:14:21.319Z,65.15
2023-05-13T02:17:23.282Z,65.37
2023-05-13T02:20:26.445Z,65.97
2023-05-13T02:23:28.350Z,66.65
2023-05-13T02:26:30.776Z,67.25
2023-05-13T02:29:32.848Z,67.25
2023-05-13T02:32:34.676Z,66.42
2023-05-13T02:35:36.516Z,65.70
2023-05-13T02:38:38.463Z,65.10
2023-05-13T02:41:45.728Z,65.32
2023-05-13T02:44:48.786Z,64.88
2023-05-13T02:47:52.216Z,64.78
2023-05-13T02:50:54.387Z,65.17
2023-05-13T02:53:56.562Z,65.25
2023-05-13T02:56:59.225Z,64.81
2023-05-13T03:00:01.478Z,64.29
2023-05-13T03:03:03.581Z,64.09
2023-05-13T03:06:06.652Z,63.93
2023-05-13T03:09:08.600Z,63.16
2023-05-13T03:12:10.563Z,62.64
2023-05-13T03:15:12.558Z,62.25
2023-05-13T03:18:14.445Z,61.74
2023-05-13T03:21:16.492Z,61.41
2023-05-13T03:24:18.484Z,61.27
2023-05-13T03:27:21.044Z,61.26
2023-05-13T03:30:23.336Z,61.13
2023-05-13T03:33:33.582Z,60.74
2023-05-13T03:36:35.853Z,60.39
2023-05-13T03:39:37.890Z,59.70
2023-05-13T03:42:40.260Z,59.59
2023-05-13T03:45:47.660Z,58.93
2023-05-13T03:48:55.752Z,58.38
2023-05-13T03:51:58.191Z,57.46
2023-05-13T03:55:00.481Z,56.62
2023-05-13T03:58:12.239Z,55.92
2023-05-13T04:01:14.170Z,55.24
2023-05-13T04:04:16.044Z,54.08
2023-05-13T04:07:17.908Z,53.35
2023-05-13T04:10:20.001Z,52.64
2023-05-13T04:13:22.003Z,51.79
2023-05-13T04:16:25.717Z,51.14
2023-05-13T04:19:27.573Z,50.41
2023-05-13T04:22:29.418Z,49.17
2023-05-13T04:25:31.728Z,49.23
2023-05-13T04:28:34.817Z,48.47
2023-05-13T04:31:37.568Z,48.07
2023-05-13T04:34:39.543Z,47.87
2023-05-13T04:37:41.558Z,47.15
2023-05-13T04:40:48.082Z,46.56
2023-05-13T04:43:55.521Z,45.83
2023-05-13T04:46:57.467Z,45.55
2023-05-13T04:49:59.422Z,45.48
2023-05-13T04:53:01.973Z,44.84
2023-05-13T04:56:04.500Z,44.65
2023-05-13T04:59:06.409Z,44.08
2023-05-13T05:02:08.465Z,43.46
2023-05-13T05:05:10.560Z,43.06
2023-05-13T05:08:12.604Z,42.99
2023-05-13T05:11:15.007Z,41.52
2023-05-13T05:14:17.252Z,41.99
2023-05-13T05:17:19.570Z,40.17
2023-05-13T05:20:22.029Z,41.21
2023-05-13T05:23:24.820Z,40.86
2023-05-13T05:26:26.856Z,39.86
2023-05-13T05:29:28.812Z,39.17
2023-05-13T05:32:30.702Z,38.85
2023-05-13T05:35:33.778Z,38.81
2023-05-13T05:38:35.764Z,38.27
2023-05-13T05:41:38.274Z,37.93
2023-05-13T05:44:40.202Z,37.34
2023-05-13T05:47:43.218Z,37.41
2023-05-13T05:50:46.356Z,37.46
2023-05-13T05:53:52.688Z,37.60
2023-05-13T05:56:54.785Z,36.99
2023-05-13T05:59:56.652Z,35.91
2023-05-13T06:02:58.732Z,35.11
2023-05-13T06:06:01.168Z,34.62
2023-05-13T06:09:04.861Z,33.94
2023-05-13T06:12:07.196Z,33.63
2023-05-13T06:15:12.430Z,33.16
2023-05-13T06:18:14.885Z,31.33
2023-05-13T06:21:16.809Z,32.14
2023-05-13T06:24:18.705Z,31.69
2023-05-13T06:27:21.819Z,30.78
2023-05-13T06:30:23.804Z,30.49
2023-05-13T06:33:26.359Z,29.22
2023-05-13T06:36:28.341Z,29.85
2023-05-13T06:39:30.366Z,29.37
2023-05-13T06:42:32.383Z,29.15
2023-05-13T06:45:36.037Z,28.90
2023-05-13T06:48:38.361Z,28.52
2023-05-13T06:51:40.253Z,29.08
2023-05-13T06:54:42.089Z,28.44
2023-05-13T06:57:46.889Z,28.63
2023-05-13T07:00:48.958Z,27.90
2023-05-13T07:03:50.822Z,27.51
2023-05-13T07:06:54.765Z,27.37
2023-05-13T07:09:56.703Z,26.22
2023-05-13T07:12:58.551Z,25.33
2023-05-13T07:16:02.408Z,23.76
2023-05-13T07:19:04.462Z,25.59
2023-05-13T07:22:06.266Z,25.20
2023-05-13T07:25:08.553Z,24.66
2023-05-13T07:28:10.389Z,25.10
2023-05-13T07:31:12.463Z,25.23
2023-05-13T07:34:14.242Z,24.00
2023-05-13T07:37:16.072Z,23.86
2023-05-13T07:40:18.670Z,24.19
2023-05-13T07:43:24.013Z,24.05
2023-05-13T07:46:26.001Z,23.69
2023-05-13T07:49:27.938Z,23.40
2023-05-13T07:52:29.813Z,23.65
2023-05-13T07:55:31.776Z,23.89
2023-05-13T07:58:33.970Z,22.60
2023-05-13T08:01:35.977Z,22.75
2023-05-13T08:04:37.725Z,22.97
2023-05-13T08:07:39.626Z,22.67
2023-05-13T08:10:41.447Z,22.90
2023-05-13T08:13:43.365Z,22.34
2023-05-13T08:16:45.260Z,21.29
2023-05-13T08:19:47.284Z,21.58
2023-05-13T08:22:49.161Z,21.78
2023-05-13T08:25:51.329Z,22.52
2023-05-13T08:28:54.747Z,22.67
2023-05-13T08:31:57.298Z,23.50
2023-05-13T08:34:59.446Z,22.40
2023-05-13T08:38:01.418Z,22.90
2023-05-13T08:41:08.839Z,21.63
2023-05-13T08:44:13.747Z,22.46
2023-05-13T08:47:52.588Z,20.93
2023-05-13T08:50:54.652Z,21.35
2023-05-13T08:53:56.777Z,21.61
2023-05-13T08:56:58.655Z,21.29
2023-05-13T09:00:00.760Z,20.29
2023-05-13T09:03:02.652Z,20.35
2023-05-13T09:06:04.964Z,20.57
2023-05-13T09:09:07.030Z,20.85
2023-05-13T09:12:08.918Z,21.58
2023-05-13T09:15:13.270Z,21.17
2023-05-13T09:18:18.529Z,21.12
2023-05-13T09:21:29.634Z,20.81
2023-05-13T09:24:31.444Z,20.86
2023-05-13T09:27:38.702Z,20.60
2023-05-13T09:30:46.653Z,20.45
2023-05-13T09:33:54.983Z,20.46
2023-05-13T09:37:02.816Z,20.14
2023-05-13T09:40:05.534Z,20.89
2023-05-13T09:43:08.421Z,20.76
2023-05-13T09:46:10.717Z,20.09
2023-05-13T09:49:12.685Z,20.26
2023-05-13T09:52:16.949Z,20.00
2023-05-13T09:55:18.825Z,19.83
2023-05-13T09:58:22.082Z,19.62
2023-05-13T10:01:27.172Z,20.43
2023-05-13T10:04:29.311Z,21.06
2023-05-13T10:07:34.145Z,20.85
2023-05-13T10:10:36.924Z,21.40
2023-05-13T10:13:39.568Z,21.85
2023-05-13T10:16:41.783Z,22.33
2023-05-13T10:19:44.287Z,21.95
2023-05-13T10:22:46.837Z,20.93
2023-05-13T10:25:49.372Z,20.69
2023-05-13T10:28:51.286Z,20.60
2023-05-13T10:31:53.735Z,20.28
2023-05-13T10:35:16.883Z,20.75
2023-05-13T10:38:56.208Z,20.68
2023-05-13T10:42:03.805Z,19.69
2023-05-13T10:45:06.060Z,20.28
2023-05-13T10:48:11.208Z,19.50
2023-05-13T10:51:17.971Z,20.08
2023-05-13T10:54:21.686Z,21.08
2023-05-13T10:57:36.024Z,21.86
2023-05-13T11:00:39.807Z,21.91
2023-05-13T11:03:42.742Z,21.87
2023-05-13T11:06:46.554Z,21.98
2023-05-13T11:09:51.661Z,22.44
2023-05-13T11:13:15.360Z,22.14
2023-05-13T11:16:17.302Z,21.36
2023-05-13T11:19:39.373Z,21.87
2023-05-13T11:22:42.038Z,21.38
2023-05-13T11:25:45.687Z,20.34
2023-05-13T11:29:04.616Z,20.83
2023-05-13T11:32:07.182Z,20.43
2023-05-13T11:35:09.859Z,20.55
2023-05-13T11:38:23.428Z,20.44
2023-05-13T11:41:25.774Z,21.07
2023-05-13T11:44:28.403Z,20.90
2023-05-13T11:47:30.269Z,21.18
2023-05-13T11:50:32.611Z,20.96
2023-05-13T11:53:34.571Z,21.47
2023-05-13T11:56:36.326Z,20.74
2023-05-13T11:59:47.586Z,20.52
2023-05-13T12:02:50.461Z,20.60
2023-05-13T12:06:01.374Z,20.38
2023-05-13T12:09:07.633Z,20.29
2023-05-13T12:12:10.173Z,19.99
2023-05-13T12:15:14.556Z,20.90
2023-05-13T12:18:16.524Z,21.05
2023-05-13T12:21:21.361Z,21.69
2023-05-13T12:24:23.308Z,21.53
2023-05-13T12:27:25.023Z,21.75
2023-05-13T12:30:34.320Z,21.43
2023-05-13T12:33:44.670Z,22.41
2023-05-13T12:36:46.518Z,22.69
2023-05-13T12:39:48.396Z,23.13
2023-05-13T12:42:50.254Z,23.21
2023-05-13T12:45:54.831Z,23.59
2023-05-13T12:48:59.845Z,23.78
2023-05-13T12:52:04.929Z,23.86
2023-05-13T12:55:07.496Z,23.96
2023-05-13T12:58:11.352Z,23.76
2023-05-13T13:01:13.300Z,23.66
2023-05-13T13:04:16.976Z,23.69
2023-05-13T13:07:19.115Z,23.68
2023-05-13T13:10:21.154Z,23.29
2023-05-13T13:13:22.888Z,22.92
2023-05-13T13:16:24.769Z,22.49
2023-05-13T13:19:26.824Z,21.90
2023-05-13T13:22:28.879Z,22.42
2023-05-13T13:25:30.930Z,22.42
2023-05-13T13:28:32.683Z,21.94
2023-05-13T13:31:34.569Z,22.24
2023-05-13T13:34:37.367Z,22.10
2023-05-13T13:37:39.382Z,22.55
2023-05-13T13:40:41.277Z,22.21
2023-05-13T13:43:43.208Z,22.77
2023-05-13T13:46:45.189Z,23.72
2023-05-13T13:49:47.066Z,24.02
2023-05-13T13:52:48.996Z,23.97
2023-05-13T13:55:50.910Z,24.11
2023-05-13T13:58:52.719Z,23.80
2023-05-13T14:01:54.649Z,24.14
2023-05-13T14:04:56.466Z,24.15
2023-05-13T14:07:58.823Z,23.74
2023-05-13T14:11:00.716Z,23.76
2023-05-13T14:14:02.700Z,23.57
2023-05-13T14:17:04.669Z,23.63
2023-05-13T14:20:07.193Z,23.74
2023-05-13T14:23:09.092Z,23.53
2023-05-13T14:26:13.316Z,23.47
2023-05-13T14:29:16.007Z,23.96
2023-05-13T14:32:18.002Z,24.38
2023-05-13T14:35:19.904Z,25.12
2023-05-13T14:38:21.739Z,25.37
2023-05-13T14:41:24.288Z,25.92
2023-05-13T14:44:26.562Z,25.82
2023-05-13T14:47:28.502Z,26.42
2023-05-13T14:50:30.442Z,26.14
2023-05-13T14:53:32.396Z,26.43
2023-05-13T14:56:34.232Z,26.17
2023-05-13T14:59:36.300Z,26.62
2023-05-13T15:02:38.245Z,26.81
2023-05-13T15:05:43.872Z,26.64
2023-05-13T15:08:46.075Z,27.54
2023-05-13T15:11:48.031Z,27.08
2023-05-13T15:14:53.891Z,27.42
2023-05-13T15:17:55.962Z,27.67
2023-05-13T15:20:57.737Z,29.48
2023-05-13T15:23:59.652Z,28.84
2023-05-13T15:27:01.608Z,29.20
2023-05-13T15:30:03.574Z,29.84
2023-05-13T15:33:05.784Z,29.54
2023-05-13T15:36:11.544Z,28.68
2023-05-13T15:39:13.648Z,28.06
2023-05-13T15:42:15.882Z,27.90
2023-05-13T15:45:17.736Z,27.58
2023-05-13T15:48:19.712Z,27.81
2023-05-13T15:51:21.816Z,28.28
2023-05-13T15:54:23.715Z,27.77
2023-05-13T15:57:25.742Z,28.04
2023-05-13T16:00:27.562Z,28.77
2023-05-13T16:03:29.378Z,29.30
2023-05-13T16:06:31.931Z,28.77
2023-05-13T16:09:33.806Z,29.14
2023-05-13T16:12:36.120Z,29.14
2023-05-13T16:15:38.002Z,28.54
2023-05-13T16:18:40.127Z,28.02
2023-05-13T16:21:42.506Z,26.97
2023-05-13T16:24:44.308Z,26.90
2023-05-13T16:27:46.247Z,27.65
2023-05-13T16:30:48.129Z,28.27
2023-05-13T16:33:51.469Z,28.34
2023-05-13T16:36:53.274Z,28.73
2023-05-13T16:39:55.474Z,29.34
2023-05-13T16:42:59.869Z,27.70
2023-05-13T16:46:03.801Z,28.58
2023-05-13T16:49:06.118Z,28.75
2023-05-13T16:52:08.124Z,30.38
2023-05-13T16:55:10.084Z,30.18
2023-05-13T16:58:11.985Z,30.68
2023-05-13T17:01:13.992Z,31.31
2023-05-13T17:04:16.319Z,31.38
2023-05-13T17:07:18.160Z,34.18
2023-05-13T17:10:20.315Z,32.98
2023-05-13T17:13:22.304Z,33.42
2023-05-13T17:16:24.675Z,33.91
2023-05-13T17:19:26.461Z,35.54
2023-05-13T17:22:28.422Z,34.91
2023-05-13T17:25:30.309Z,35.86
2023-05-13T17:28:33.978Z,36.23
2023-05-13T17:31:35.870Z,36.57
2023-05-13T17:34:37.730Z,36.80
2023-05-13T17:37:39.693Z,37.32
2023-05-13T17:40:41.617Z,37.31
2023-05-13T17:43:43.503Z,38.04
2023-05-13T17:46:45.429Z,38.24
2023-05-13T17:49:47.326Z,38.50
2023-05-13T17:52:49.299Z,38.63
2023-05-13T17:55:51.248Z,39.22
2023-05-13T17:58:53.081Z,39.56
2023-05-13T18:01:55.016Z,40.29
2023-05-13T18:04:56.887Z,40.33
2023-05-13T18:07:59.493Z,40.57
2023-05-13T18:11:01.393Z,40.62
2023-05-13T18:14:03.534Z,41.43
2023-05-13T18:17:05.431Z,41.97
2023-05-13T18:20:07.956Z,41.78
2023-05-13T18:23:09.758Z,42.36
2023-05-13T18:26:11.607Z,41.64
2023-05-13T18:29:13.482Z,42.49
2023-05-13T18:32:15.382Z,42.31
2023-05-13T18:35:17.459Z,42.30
2023-05-13T18:38:19.337Z,42.56
2023-05-13T18:41:21.559Z,43.01
2023-05-13T18:44:23.574Z,43.71
2023-05-13T18:47:26.692Z,43.56
2023-05-13T18:50:29.601Z,43.98
2023-05-13T18:53:31.613Z,44.43
2023-05-13T18:56:34.030Z,44.42
2023-05-13T18:59:36.160Z,44.69
2023-05-13T19:02:38.287Z,45.80
2023-05-13T19:05:40.298Z,46.35
2023-05-13T19:08:42.185Z,45.65
2023-05-13T19:11:44.592Z,45.56
2023-05-13T19:14:46.482Z,45.84
2023-05-13T19:17:48.436Z,46.12
2023-05-13T19:20:50.442Z,46.38
2023-05-13T19:23:52.291Z,46.76
2023-05-13T19:26:54.184Z,46.72
2023-05-13T19:29:56.014Z,46.84
2023-05-13T19:32:57.952Z,46.95
2023-05-13T19:35:59.934Z,47.24
2023-05-13T19:39:01.731Z,46.77
2023-05-13T19:42:04.598Z,47.46
2023-05-13T19:45:08.176Z,45.96
2023-05-13T19:48:10.336Z,45.83
2023-05-13T19:51:12.237Z,45.92
2023-05-13T19:54:14.148Z,45.66
2023-05-13T19:57:15.966Z,45.53
2023-05-13T20:00:18.433Z,45.40
2023-05-13T20:03:21.100Z,45.12
2023-05-13T20:06:23.032Z,45.54
2023-05-13T20:09:26.857Z,45.72
2023-05-13T20:12:28.694Z,46.16
2023-05-13T20:15:31.487Z,46.17
2023-05-13T20:18:33.890Z,46.18
2023-05-13T20:21:35.800Z,46.10
2023-05-13T20:24:37.714Z,46.03
2023-05-13T20:27:39.558Z,46.66
2023-05-13T20:30:45.159Z,46.96
2023-05-13T20:33:47.034Z,47.38
2023-05-13T20:36:48.913Z,47.76
2023-05-13T20:39:50.835Z,47.91
2023-05-13T20:42:52.729Z,48.22
2023-05-13T20:45:54.650Z,48.57
2023-05-13T20:48:56.561Z,48.05
2023-05-13T20:52:03.703Z,47.42
2023-05-13T20:55:06.270Z,47.84
2023-05-13T20:58:08.156Z,48.29
2023-05-13T21:01:10.039Z,48.07
2023-05-13T21:04:12.055Z,48.17
2023-05-13T21:07:15.322Z,48.39
2023-05-13T21:10:17.555Z,48.61
2023-05-13T21:13:19.421Z,48.37
2023-05-13T21:16:21.302Z,48.60
2023-05-13T21:19:24.656Z,48.59
2023-05-13T21:22:26.480Z,48.56
2023-05-13T21:25:28.330Z,48.74
2023-05-13T21:28:30.254Z,48.80
2023-05-13T21:31:32.155Z,48.92
2023-05-13T21:34:33.963Z,49.06
2023-05-13T21:37:35.764Z,49.02
2023-05-13T21:40:38.475Z,49.29
2023-05-13T21:43:40.204Z,50.52
2023-05-13T21:46:42.075Z,49.56
2023-05-13T21:49:44.152Z,49.94
2023-05-13T21:52:46.049Z,50.09
2023-05-13T21:55:48.508Z,50.29
2023-05-13T21:58:50.714Z,51.59
2023-05-13T22:01:52.530Z,49.85
2023-05-13T22:04:54.385Z,50.26
2023-05-13T22:07:56.321Z,50.83
2023-05-13T22:10:58.247Z,50.64
2023-05-13T22:14:00.534Z,50.86
2023-05-13T22:20:09.709Z,50.72
2023-05-13T22:23:11.714Z,51.06
2023-05-13T22:26:13.559Z,51.95
2023-05-13T22:29:15.501Z,52.29
2023-05-13T22:32:17.370Z,52.41
2023-05-13T22:35:19.210Z,53.71
2023-05-13T22:38:21.033Z,53.75
2023-05-13T22:41:23.898Z,54.68
2023-05-13T22:44:25.846Z,54.15
2023-05-13T22:47:27.811Z,53.67
2023-05-13T22:50:29.668Z,53.49
2023-05-13T22:53:31.521Z,53.32
2023-05-13T22:56:33.374Z,53.28
2023-05-13T22:59:35.618Z,52.74
2023-05-13T23:02:37.538Z,51.83
2023-05-13T23:05:39.386Z,51.65
2023-05-13T23:08:41.722Z,51.34
2023-05-13T23:11:43.601Z,51.71
2023-05-13T23:14:45.836Z,51.73
2023-05-13T23:17:47.711Z,50.75
2023-05-13T23:20:51.283Z,50.32
2023-05-13T23:23:53.179Z,50.14
2023-05-13T23:26:54.992Z,49.71
2023-05-13T23:29:57.054Z,49.50
2023-05-13T23:32:58.968Z,49.46
2023-05-13T23:36:00.900Z,49.35
2023-05-13T23:39:02.795Z,49.10
2023-05-13T23:42:04.823Z,48.89
2023-05-13T23:45:07.180Z,48.75
2023-05-13T23:48:09.166Z,48.72
2023-05-13T23:51:11.094Z,48.64
2023-05-13T23:54:12.968Z,48.36
2023-05-13T23:57:14.849Z,48.48
